Adak, Alaska
Current Conditions -  °F | °C
As of 6:16 PM on Wednesday 22 Oct 2014 (Local Time) from PADK Reporting Station
Overcast Overcast  
Wind Chill:   Ceiling: 3000
Heat Index:   Visibility: 10mi
Dew Point:   Wind: 13mph
Humidity: 71%   Direction: 220°SW
Pressure: 30.27"   Gusts: NA
Location:  51.88°N, 176.66°W
Report Text: PADK 230316Z AUTO 22011KT 10SM FEW024 BKN030 OVC036 08/03 A3027 RMK AO1
Loading
Personal Weather Stations






























Interactive Weather Map
Tropical Storm Tracking
New forecast layout! Learn more

10-Day Weather Forecast

Advertisements
Track Severe Weather on mobile